sensor_id;sensor_type;location;lat;lon;timestamp;pressure;altitude;pressure_sealevel;temperature;humidity
53874;BME280;62246;50.938;4.058;2022-08-14T00:02:23;101082.59;;;19.39;55.45
53874;BME280;62246;50.938;4.058;2022-08-14T00:04:48;101082.44;;;19.49;55.35
53874;BME280;62246;50.938;4.058;2022-08-14T00:07:14;101088.63;;;19.58;53.78
53874;BME280;62246;50.938;4.058;2022-08-14T00:09:41;101077.91;;;19.74;52.43
53874;BME280;62246;50.938;4.058;2022-08-14T00:12:08;101074.72;;;19.71;54.25
53874;BME280;62246;50.938;4.058;2022-08-14T00:14:34;101076.72;;;19.77;54.29
53874;BME280;62246;50.938;4.058;2022-08-14T00:16:59;101070.00;;;19.64;54.79
53874;BME280;62246;50.938;4.058;2022-08-14T00:19:24;101073.06;;;19.45;55.71
53874;BME280;62246;50.938;4.058;2022-08-14T00:21:50;101071.50;;;19.09;56.49
53874;BME280;62246;50.938;4.058;2022-08-14T00:24:20;101070.66;;;19.01;57.54
53874;BME280;62246;50.938;4.058;2022-08-14T00:26:46;101062.47;;;19.19;55.77
53874;BME280;62246;50.938;4.058;2022-08-14T00:29:12;101055.94;;;19.21;56.03
53874;BME280;62246;50.938;4.058;2022-08-14T00:31:37;101058.53;;;18.80;57.66
53874;BME280;62246;50.938;4.058;2022-08-14T00:34:03;101059.53;;;18.79;56.95
53874;BME280;62246;50.938;4.058;2022-08-14T00:36:28;101058.97;;;18.59;58.45
53874;BME280;62246;50.938;4.058;2022-08-14T00:38:54;101047.19;;;18.52;58.42
53874;BME280;62246;50.938;4.058;2022-08-14T00:41:19;101055.94;;;18.62;57.55
53874;BME280;62246;50.938;4.058;2022-08-14T00:43:45;101049.41;;;18.56;58.22
53874;BME280;62246;50.938;4.058;2022-08-14T00:46:10;101053.25;;;18.54;58.91
53874;BME280;62246;50.938;4.058;2022-08-14T00:48:37;101050.03;;;18.50;58.95
53874;BME280;62246;50.938;4.058;2022-08-14T00:51:05;101049.16;;;18.41;59.40
53874;BME280;62246;50.938;4.058;2022-08-14T00:53:31;101050.47;;;18.29;59.48
53874;BME280;62246;50.938;4.058;2022-08-14T00:55:56;101051.09;;;18.23;60.24
53874;BME280;62246;50.938;4.058;2022-08-14T00:58:23;101047.25;;;18.25;59.92
53874;BME280;62246;50.938;4.058;2022-08-14T01:01:06;101048.91;;;18.18;60.02
53874;BME280;62246;50.938;4.058;2022-08-14T01:03:34;101043.19;;;18.13;59.99
53874;BME280;62246;50.938;4.058;2022-08-14T01:06:06;101043.06;;;17.96;60.23
53874;BME280;62246;50.938;4.058;2022-08-14T01:08:33;101044.22;;;17.94;60.23
53874;BME280;62246;50.938;4.058;2022-08-14T01:10:59;101041.66;;;17.84;60.86
53874;BME280;62246;50.938;4.058;2022-08-14T01:13:29;101039.50;;;17.88;61.14
53874;BME280;62246;50.938;4.058;2022-08-14T01:15:58;101037.72;;;17.96;60.85
53874;BME280;62246;50.938;4.058;2022-08-14T01:18:25;101036.19;;;17.94;60.21
53874;BME280;62246;50.938;4.058;2022-08-14T01:21:11;101041.59;;;17.76;60.93
53874;BME280;62246;50.938;4.058;2022-08-14T01:23:42;101040.69;;;17.67;61.17
53874;BME280;62246;50.938;4.058;2022-08-14T01:26:08;101035.66;;;17.64;61.76
53874;BME280;62246;50.938;4.058;2022-08-14T01:28:35;101025.34;;;17.51;61.98
53874;BME280;62246;50.938;4.058;2022-08-14T01:31:07;101022.34;;;17.54;61.75
53874;BME280;62246;50.938;4.058;2022-08-14T01:33:35;101020.06;;;17.59;61.54
53874;BME280;62246;50.938;4.058;2022-08-14T01:36:05;101011.66;;;17.54;61.92
53874;BME280;62246;50.938;4.058;2022-08-14T01:38:31;101001.66;;;17.56;61.79
53874;BME280;62246;50.938;4.058;2022-08-14T01:41:01;101014.69;;;17.59;61.69
53874;BME280;62246;50.938;4.058;2022-08-14T01:43:26;101002.25;;;17.50;61.91
53874;BME280;62246;50.938;4.058;2022-08-14T01:45:57;101005.97;;;17.49;62.18
53874;BME280;62246;50.938;4.058;2022-08-14T01:48:25;101001.66;;;17.38;62.46
53874;BME280;62246;50.938;4.058;2022-08-14T01:50:55;101007.25;;;17.45;62.57
53874;BME280;62246;50.938;4.058;2022-08-14T01:53:20;101002.53;;;17.39;62.54
53874;BME280;62246;50.938;4.058;2022-08-14T01:55:46;101002.59;;;17.29;62.69
53874;BME280;62246;50.938;4.058;2022-08-14T01:58:15;101009.47;;;17.31;63.32
53874;BME280;62246;50.938;4.058;2022-08-14T02:00:41;101000.09;;;17.27;63.16
53874;BME280;62246;50.938;4.058;2022-08-14T02:03:07;101003.31;;;17.31;63.71
53874;BME280;62246;50.938;4.058;2022-08-14T02:05:33;101002.22;;;17.24;63.92
53874;BME280;62246;50.938;4.058;2022-08-14T02:07:59;101007.13;;;17.10;64.13
53874;BME280;62246;50.938;4.058;2022-08-14T02:10:25;100996.75;;;17.07;64.07
53874;BME280;62246;50.938;4.058;2022-08-14T02:12:54;100998.59;;;17.07;64.00
53874;BME280;62246;50.938;4.058;2022-08-14T02:15:21;100996.97;;;16.96;64.67
53874;BME280;62246;50.938;4.058;2022-08-14T02:17:48;100991.63;;;16.96;64.41
53874;BME280;62246;50.938;4.058;2022-08-14T02:20:14;101000.34;;;16.98;64.67
53874;BME280;62246;50.938;4.058;2022-08-14T02:22:39;100994.63;;;16.93;65.15
53874;BME280;62246;50.938;4.058;2022-08-14T02:25:05;100994.78;;;16.91;65.74
53874;BME280;62246;50.938;4.058;2022-08-14T02:27:31;100993.16;;;16.98;65.68
53874;BME280;62246;50.938;4.058;2022-08-14T02:29:56;100995.97;;;16.79;66.14
53874;BME280;62246;50.938;4.058;2022-08-14T02:32:22;100994.06;;;16.71;66.39
53874;BME280;62246;50.938;4.058;2022-08-14T02:34:47;101000.00;;;16.65;66.55
53874;BME280;62246;50.938;4.058;2022-08-14T02:37:12;100992.22;;;16.72;66.28
53874;BME280;62246;50.938;4.058;2022-08-14T02:39:43;100994.97;;;16.62;66.62
53874;BME280;62246;50.938;4.058;2022-08-14T02:42:11;100996.69;;;16.53;67.09
53874;BME280;62246;50.938;4.058;2022-08-14T02:44:39;100995.88;;;16.53;66.77
53874;BME280;62246;50.938;4.058;2022-08-14T02:47:05;101001.22;;;16.53;67.02
53874;BME280;62246;50.938;4.058;2022-08-14T02:49:32;100997.69;;;16.52;66.78
53874;BME280;62246;50.938;4.058;2022-08-14T02:51:59;100993.78;;;16.46;66.77
53874;BME280;62246;50.938;4.058;2022-08-14T02:54:25;100995.16;;;16.51;66.90
53874;BME280;62246;50.938;4.058;2022-08-14T02:56:55;100990.56;;;16.43;67.55
53874;BME280;62246;50.938;4.058;2022-08-14T02:59:22;100986.22;;;16.42;68.04
53874;BME280;62246;50.938;4.058;2022-08-14T03:01:49;100986.81;;;16.36;67.59
53874;BME280;62246;50.938;4.058;2022-08-14T03:04:15;100988.91;;;16.42;67.48
53874;BME280;62246;50.938;4.058;2022-08-14T03:06:40;100981.56;;;16.44;67.18
53874;BME280;62246;50.938;4.058;2022-08-14T03:09:10;100989.03;;;16.40;67.66
53874;BME280;62246;50.938;4.058;2022-08-14T03:11:36;100987.88;;;16.43;67.98
53874;BME280;62246;50.938;4.058;2022-08-14T03:14:02;100980.63;;;16.35;67.77
53874;BME280;62246;50.938;4.058;2022-08-14T03:16:29;100987.88;;;16.25;67.97
53874;BME280;62246;50.938;4.058;2022-08-14T03:19:00;100982.69;;;16.23;67.82
53874;BME280;62246;50.938;4.058;2022-08-14T03:21:26;100980.00;;;16.23;68.66
53874;BME280;62246;50.938;4.058;2022-08-14T03:23:54;100981.38;;;16.27;67.89
53874;BME280;62246;50.938;4.058;2022-08-14T03:26:34;100984.66;;;16.21;68.49
53874;BME280;62246;50.938;4.058;2022-08-14T03:28:59;100976.22;;;16.16;68.69
53874;BME280;62246;50.938;4.058;2022-08-14T03:31:26;100974.44;;;16.07;69.27
53874;BME280;62246;50.938;4.058;2022-08-14T03:33:52;100967.72;;;16.03;69.20
53874;BME280;62246;50.938;4.058;2022-08-14T03:36:18;100969.44;;;15.94;69.60
53874;BME280;62246;50.938;4.058;2022-08-14T03:38:46;100977.28;;;15.95;69.57
53874;BME280;62246;50.938;4.058;2022-08-14T03:41:16;100962.22;;;16.04;69.31
53874;BME280;62246;50.938;4.058;2022-08-14T03:43:43;100961.97;;;15.97;69.42
53874;BME280;62246;50.938;4.058;2022-08-14T03:46:10;100957.22;;;15.91;69.70
53874;BME280;62246;50.938;4.058;2022-08-14T03:48:38;100956.94;;;15.94;69.61
53874;BME280;62246;50.938;4.058;2022-08-14T03:51:05;100946.28;;;15.94;69.53
53874;BME280;62246;50.938;4.058;2022-08-14T03:53:33;100948.94;;;15.94;69.63
53874;BME280;62246;50.938;4.058;2022-08-14T03:56:05;100946.69;;;15.90;70.28
53874;BME280;62246;50.938;4.058;2022-08-14T03:58:32;100940.53;;;15.79;70.83
53874;BME280;62246;50.938;4.058;2022-08-14T04:00:59;100941.09;;;15.83;70.42
53874;BME280;62246;50.938;4.058;2022-08-14T04:03:25;100939.97;;;15.86;70.72
53874;BME280;62246;50.938;4.058;2022-08-14T04:05:52;100937.75;;;15.81;70.97
53874;BME280;62246;50.938;4.058;2022-08-14T04:08:17;100940.81;;;15.86;70.65
53874;BME280;62246;50.938;4.058;2022-08-14T04:10:43;100935.50;;;15.76;70.93
53874;BME280;62246;50.938;4.058;2022-08-14T04:13:11;100927.91;;;15.81;70.65
53874;BME280;62246;50.938;4.058;2022-08-14T04:15:37;100934.34;;;15.79;71.18
53874;BME280;62246;50.938;4.058;2022-08-14T04:18:06;100937.19;;;15.77;71.07
53874;BME280;62246;50.938;4.058;2022-08-14T04:20:34;100934.78;;;15.74;70.72
53874;BME280;62246;50.938;4.058;2022-08-14T04:22:59;100929.06;;;15.69;71.28
53874;BME280;62246;50.938;4.058;2022-08-14T04:25:26;100932.25;;;15.73;70.62
53874;BME280;62246;50.938;4.058;2022-08-14T04:27:51;100926.25;;;15.71;70.83
53874;BME280;62246;50.938;4.058;2022-08-14T04:30:16;100919.22;;;15.70;70.64
53874;BME280;62246;50.938;4.058;2022-08-14T04:32:42;100920.50;;;15.65;70.91
53874;BME280;62246;50.938;4.058;2022-08-14T04:35:09;100919.94;;;15.62;71.31
53874;BME280;62246;50.938;4.058;2022-08-14T04:37:35;100923.34;;;15.54;71.68
53874;BME280;62246;50.938;4.058;2022-08-14T04:40:19;100931.50;;;15.53;72.49
53874;BME280;62246;50.938;4.058;2022-08-14T04:43:03;100926.63;;;15.48;73.03
53874;BME280;62246;50.938;4.058;2022-08-14T04:45:47;100924.88;;;15.57;72.52
53874;BME280;62246;50.938;4.058;2022-08-14T04:48:15;100929.00;;;15.79;71.30
53874;BME280;62246;50.938;4.058;2022-08-14T04:50:46;100928.16;;;15.88;71.08
53874;BME280;62246;50.938;4.058;2022-08-14T04:53:20;100930.34;;;16.03;70.24
53874;BME280;62246;50.938;4.058;2022-08-14T04:55:48;100936.47;;;15.85;70.91
53874;BME280;62246;50.938;4.058;2022-08-14T04:58:14;100929.91;;;15.70;71.56
53874;BME280;62246;50.938;4.058;2022-08-14T05:00:42;100932.88;;;15.66;71.35
53874;BME280;62246;50.938;4.058;2022-08-14T05:03:08;100931.59;;;15.71;71.64
53874;BME280;62246;50.938;4.058;2022-08-14T05:05:34;100934.34;;;15.79;70.97
53874;BME280;62246;50.938;4.058;2022-08-14T05:08:08;100931.84;;;15.77;71.06
53874;BME280;62246;50.938;4.058;2022-08-14T05:10:39;100930.84;;;15.78;71.21
53874;BME280;62246;50.938;4.058;2022-08-14T05:13:05;100931.97;;;15.86;70.67
53874;BME280;62246;50.938;4.058;2022-08-14T05:15:32;100931.28;;;15.74;71.47
53874;BME280;62246;50.938;4.058;2022-08-14T05:18:07;100929.19;;;15.68;71.69
53874;BME280;62246;50.938;4.058;2022-08-14T05:20:40;100922.84;;;15.78;71.00
53874;BME280;62246;50.938;4.058;2022-08-14T05:23:09;100925.09;;;15.83;70.81
53874;BME280;62246;50.938;4.058;2022-08-14T05:25:35;100920.41;;;15.95;71.11
53874;BME280;62246;50.938;4.058;2022-08-14T05:28:10;100930.28;;;15.85;71.62
53874;BME280;62246;50.938;4.058;2022-08-14T05:30:36;100935.19;;;15.89;71.02
53874;BME280;62246;50.938;4.058;2022-08-14T05:33:03;100940.44;;;15.81;71.88
53874;BME280;62246;50.938;4.058;2022-08-14T05:35:28;100930.41;;;15.93;71.33
53874;BME280;62246;50.938;4.058;2022-08-14T05:37:57;100929.53;;;15.92;71.89
53874;BME280;62246;50.938;4.058;2022-08-14T05:40:23;100928.25;;;15.96;72.08
53874;BME280;62246;50.938;4.058;2022-08-14T05:42:48;100920.34;;;16.05;71.40
53874;BME280;62246;50.938;4.058;2022-08-14T05:45:14;100924.19;;;16.20;71.16
53874;BME280;62246;50.938;4.058;2022-08-14T05:47:41;100927.09;;;16.27;71.02
53874;BME280;62246;50.938;4.058;2022-08-14T05:50:11;100925.59;;;16.42;71.09
53874;BME280;62246;50.938;4.058;2022-08-14T05:52:37;100921.94;;;16.43;71.36
53874;BME280;62246;50.938;4.058;2022-08-14T05:55:04;100924.94;;;16.58;71.32
53874;BME280;62246;50.938;4.058;2022-08-14T05:57:30;100915.78;;;16.79;70.35
53874;BME280;62246;50.938;4.058;2022-08-14T05:59:56;100913.31;;;16.86;70.46
53874;BME280;62246;50.938;4.058;2022-08-14T06:02:21;100924.13;;;16.84;70.86
53874;BME280;62246;50.938;4.058;2022-08-14T06:04:47;100912.31;;;17.05;70.13
53874;BME280;62246;50.938;4.058;2022-08-14T06:07:17;100908.53;;;17.15;70.16
53874;BME280;62246;50.938;4.058;2022-08-14T06:09:43;100912.34;;;17.31;69.80
53874;BME280;62246;50.938;4.058;2022-08-14T06:12:09;100925.59;;;17.41;70.38
53874;BME280;62246;50.938;4.058;2022-08-14T06:14:36;100925.34;;;17.52;69.88
53874;BME280;62246;50.938;4.058;2022-08-14T06:17:02;100917.53;;;17.67;69.32
53874;BME280;62246;50.938;4.058;2022-08-14T06:19:27;100924.31;;;17.79;68.64
53874;BME280;62246;50.938;4.058;2022-08-14T06:21:53;100919.88;;;17.96;67.79
53874;BME280;62246;50.938;4.058;2022-08-14T06:24:18;100912.44;;;18.17;66.97
53874;BME280;62246;50.938;4.058;2022-08-14T06:26:45;100929.88;;;18.29;65.81
53874;BME280;62246;50.938;4.058;2022-08-14T06:29:10;100920.34;;;18.43;65.80
53874;BME280;62246;50.938;4.058;2022-08-14T06:31:36;100917.88;;;18.58;63.01
53874;BME280;62246;50.938;4.058;2022-08-14T06:34:01;100919.91;;;18.72;63.38
53874;BME280;62246;50.938;4.058;2022-08-14T06:36:27;100916.56;;;18.87;63.60
53874;BME280;62246;50.938;4.058;2022-08-14T06:38:53;100920.59;;;18.99;62.91
53874;BME280;62246;50.938;4.058;2022-08-14T06:41:20;100913.53;;;19.14;62.13
53874;BME280;62246;50.938;4.058;2022-08-14T06:43:46;100921.72;;;19.29;61.70
53874;BME280;62246;50.938;4.058;2022-08-14T06:46:11;100915.16;;;19.40;61.52
53874;BME280;62246;50.938;4.058;2022-08-14T06:48:37;100913.94;;;19.51;61.43
53874;BME280;62246;50.938;4.058;2022-08-14T06:51:02;100910.72;;;19.64;60.55
53874;BME280;62246;50.938;4.058;2022-08-14T06:53:28;100909.84;;;19.80;59.79
53874;BME280;62246;50.938;4.058;2022-08-14T06:55:54;100906.63;;;19.93;59.75
53874;BME280;62246;50.938;4.058;2022-08-14T06:58:19;100913.78;;;20.09;58.86
53874;BME280;62246;50.938;4.058;2022-08-14T07:00:46;100912.16;;;20.23;57.73
53874;BME280;62246;50.938;4.058;2022-08-14T07:03:32;100912.75;;;20.41;57.21
53874;BME280;62246;50.938;4.058;2022-08-14T07:06:16;100918.31;;;20.63;57.27
53874;BME280;62246;50.938;4.058;2022-08-14T07:08:43;100906.41;;;20.80;56.37
53874;BME280;62246;50.938;4.058;2022-08-14T07:11:10;100901.38;;;21.01;55.77
53874;BME280;62246;50.938;4.058;2022-08-14T07:13:35;100894.63;;;21.20;55.53
53874;BME280;62246;50.938;4.058;2022-08-14T07:16:01;100884.25;;;21.32;54.68
53874;BME280;62246;50.938;4.058;2022-08-14T07:18:30;100886.56;;;21.50;53.81
53874;BME280;62246;50.938;4.058;2022-08-14T07:20:58;100879.72;;;21.62;53.90
53874;BME280;62246;50.938;4.058;2022-08-14T07:23:24;100874.88;;;21.72;53.92
53874;BME280;62246;50.938;4.058;2022-08-14T07:25:53;100877.56;;;21.87;53.85
53874;BME280;62246;50.938;4.058;2022-08-14T07:28:22;100870.19;;;21.96;53.78
53874;BME280;62246;50.938;4.058;2022-08-14T07:30:52;100867.47;;;22.11;52.21
53874;BME280;62246;50.938;4.058;2022-08-14T07:33:26;100876.78;;;22.30;52.41
53874;BME280;62246;50.938;4.058;2022-08-14T07:35:53;100869.09;;;22.49;50.83
53874;BME280;62246;50.938;4.058;2022-08-14T07:38:20;100860.16;;;22.70;49.67
53874;BME280;62246;50.938;4.058;2022-08-14T07:40:50;100860.13;;;22.91;48.55
53874;BME280;62246;50.938;4.058;2022-08-14T07:43:16;100848.41;;;23.12;48.86
53874;BME280;62246;50.938;4.058;2022-08-14T07:45:42;100855.03;;;23.32;48.64
53874;BME280;62246;50.938;4.058;2022-08-14T07:48:08;100863.41;;;23.43;48.31
53874;BME280;62246;50.938;4.058;2022-08-14T07:50:34;100869.44;;;23.52;48.05
53874;BME280;62246;50.938;4.058;2022-08-14T07:53:00;100867.22;;;23.62;47.37
53874;BME280;62246;50.938;4.058;2022-08-14T07:55:26;100864.00;;;23.87;44.71
53874;BME280;62246;50.938;4.058;2022-08-14T07:57:52;100862.03;;;24.16;44.07
53874;BME280;62246;50.938;4.058;2022-08-14T08:00:20;100864.16;;;24.41;42.87
53874;BME280;62246;50.938;4.058;2022-08-14T08:02:48;100862.75;;;24.65;42.63
53874;BME280;62246;50.938;4.058;2022-08-14T08:05:14;100861.06;;;24.84;42.14
53874;BME280;62246;50.938;4.058;2022-08-14T08:07:42;100861.28;;;24.96;41.95
53874;BME280;62246;50.938;4.058;2022-08-14T08:10:12;100860.41;;;25.16;41.12
53874;BME280;62246;50.938;4.058;2022-08-14T08:13:00;100856.66;;;25.37;41.58
53874;BME280;62246;50.938;4.058;2022-08-14T08:15:29;100855.94;;;25.61;40.22
53874;BME280;62246;50.938;4.058;2022-08-14T08:18:00;100853.78;;;25.77;39.96
53874;BME280;62246;50.938;4.058;2022-08-14T08:20:33;100847.47;;;25.90;38.31
53874;BME280;62246;50.938;4.058;2022-08-14T08:23:00;100848.22;;;26.10;38.40
53874;BME280;62246;50.938;4.058;2022-08-14T08:25:29;100846.25;;;26.24;39.15
53874;BME280;62246;50.938;4.058;2022-08-14T08:27:57;100842.03;;;26.28;38.56
53874;BME280;62246;50.938;4.058;2022-08-14T08:30:23;100838.00;;;26.38;37.01
53874;BME280;62246;50.938;4.058;2022-08-14T08:32:51;100842.28;;;26.52;39.14
53874;BME280;62246;50.938;4.058;2022-08-14T08:35:24;100838.00;;;26.63;39.97
53874;BME280;62246;50.938;4.058;2022-08-14T08:37:50;100837.13;;;26.69;38.82
53874;BME280;62246;50.938;4.058;2022-08-14T08:40:34;100842.91;;;26.80;37.46
53874;BME280;62246;50.938;4.058;2022-08-14T08:43:20;100827.94;;;26.96;37.73
53874;BME280;62246;50.938;4.058;2022-08-14T08:46:09;100831.47;;;27.15;35.45
53874;BME280;62246;50.938;4.058;2022-08-14T08:49:01;100825.69;;;27.30;35.18
53874;BME280;62246;50.938;4.058;2022-08-14T08:51:35;100832.78;;;27.49;34.22
53874;BME280;62246;50.938;4.058;2022-08-14T08:54:13;100827.41;;;27.61;33.59
53874;BME280;62246;50.938;4.058;2022-08-14T08:56:48;100830.25;;;27.85;34.21
53874;BME280;62246;50.938;4.058;2022-08-14T09:01:54;100838.69;;;28.25;33.49
53874;BME280;62246;50.938;4.058;2022-08-14T09:04:22;100820.97;;;28.58;33.20
53874;BME280;62246;50.938;4.058;2022-08-14T09:06:49;100822.94;;;28.70;31.68
53874;BME280;62246;50.938;4.058;2022-08-14T09:09:26;100817.56;;;28.99;29.71
53874;BME280;62246;50.938;4.058;2022-08-14T09:11:53;100815.78;;;29.16;29.33
53874;BME280;62246;50.938;4.058;2022-08-14T09:14:30;100815.03;;;29.33;29.79
53874;BME280;62246;50.938;4.058;2022-08-14T09:16:57;100811.91;;;29.53;29.66
53874;BME280;62246;50.938;4.058;2022-08-14T09:19:24;100806.84;;;29.73;28.55
53874;BME280;62246;50.938;4.058;2022-08-14T09:21:49;100801.22;;;29.92;29.18
53874;BME280;62246;50.938;4.058;2022-08-14T09:24:15;100802.91;;;30.10;27.92
53874;BME280;62246;50.938;4.058;2022-08-14T09:26:43;100799.34;;;30.10;27.60
53874;BME280;62246;50.938;4.058;2022-08-14T09:29:09;100788.34;;;30.21;27.20
53874;BME280;62246;50.938;4.058;2022-08-14T09:31:37;100781.97;;;30.33;27.52
53874;BME280;62246;50.938;4.058;2022-08-14T09:39:42;100782.22;;;30.14;25.87
53874;BME280;62246;50.938;4.058;2022-08-14T09:42:27;100782.56;;;30.01;25.95
53874;BME280;62246;50.938;4.058;2022-08-14T09:45:19;100787.25;;;30.05;25.68
53874;BME280;62246;50.938;4.058;2022-08-14T09:47:49;100785.78;;;30.15;26.70
53874;BME280;62246;50.938;4.058;2022-08-14T09:52:57;100767.84;;;30.53;26.43
53874;BME280;62246;50.938;4.058;2022-08-14T09:55:24;100768.72;;;30.76;25.72
53874;BME280;62246;50.938;4.058;2022-08-14T09:57:51;100766.75;;;30.71;25.40
53874;BME280;62246;50.938;4.058;2022-08-14T10:00:18;100774.16;;;30.76;24.82
53874;BME280;62246;50.938;4.058;2022-08-14T10:02:56;100762.50;;;30.80;23.92
53874;BME280;62246;50.938;4.058;2022-08-14T10:05:33;100767.88;;;30.75;24.87
53874;BME280;62246;50.938;4.058;2022-08-14T10:08:00;100774.44;;;30.74;24.21
53874;BME280;62246;50.938;4.058;2022-08-14T10:10:37;100764.41;;;30.63;23.65
53874;BME280;62246;50.938;4.058;2022-08-14T10:13:05;100770.91;;;30.56;24.04
53874;BME280;62246;50.938;4.058;2022-08-14T10:15:37;100770.03;;;30.39;23.99
53874;BME280;62246;50.938;4.058;2022-08-14T10:18:09;100770.97;;;30.11;23.58
53874;BME280;62246;50.938;4.058;2022-08-14T10:20:37;100777.66;;;30.03;23.53
53874;BME280;62246;50.938;4.058;2022-08-14T10:23:11;100771.28;;;29.97;24.66
53874;BME280;62246;50.938;4.058;2022-08-14T10:25:48;100754.31;;;29.95;24.18
53874;BME280;62246;50.938;4.058;2022-08-14T10:28:19;100763.75;;;30.04;25.15
53874;BME280;62246;50.938;4.058;2022-08-14T10:30:47;100752.13;;;30.09;25.09
53874;BME280;62246;50.938;4.058;2022-08-14T10:33:43;100756.34;;;30.17;24.76
53874;BME280;62246;50.938;4.058;2022-08-14T10:36:11;100748.19;;;30.39;24.04
53874;BME280;62246;50.938;4.058;2022-08-14T10:38:36;100748.38;;;30.32;24.68
53874;BME280;62246;50.938;4.058;2022-08-14T10:41:13;100742.94;;;30.15;24.08
53874;BME280;62246;50.938;4.058;2022-08-14T10:43:40;100744.91;;;30.37;24.49
53874;BME280;62246;50.938;4.058;2022-08-14T10:46:17;100740.50;;;30.36;24.12
53874;BME280;62246;50.938;4.058;2022-08-14T10:48:58;100735.47;;;30.28;24.09
53874;BME280;62246;50.938;4.058;2022-08-14T10:51:30;100730.13;;;30.16;24.10
53874;BME280;62246;50.938;4.058;2022-08-14T10:54:04;100726.13;;;30.23;24.24
53874;BME280;62246;50.938;4.058;2022-08-14T10:56:32;100720.25;;;30.32;24.55
53874;BME280;62246;50.938;4.058;2022-08-14T10:59:04;100714.34;;;30.40;24.23
53874;BME280;62246;50.938;4.058;2022-08-14T11:01:31;100714.63;;;31.00;24.30
53874;BME280;62246;50.938;4.058;2022-08-14T11:03:57;100708.66;;;31.52;23.56
53874;BME280;62246;50.938;4.058;2022-08-14T11:06:23;100700.84;;;31.94;22.57
53874;BME280;62246;50.938;4.058;2022-08-14T11:08:48;100699.94;;;32.15;23.19
53874;BME280;62246;50.938;4.058;2022-08-14T11:11:16;100697.59;;;32.34;21.98
53874;BME280;62246;50.938;4.058;2022-08-14T11:13:43;100696.06;;;32.54;20.91
53874;BME280;62246;50.938;4.058;2022-08-14T11:16:09;100690.22;;;32.83;20.71
53874;BME280;62246;50.938;4.058;2022-08-14T11:18:35;100683.72;;;33.10;20.91
53874;BME280;62246;50.938;4.058;2022-08-14T11:21:02;100676.69;;;33.40;20.57
53874;BME280;62246;50.938;4.058;2022-08-14T11:23:36;100668.16;;;33.41;19.51
53874;BME280;62246;50.938;4.058;2022-08-14T11:26:07;100673.94;;;33.34;20.47
53874;BME280;62246;50.938;4.058;2022-08-14T11:28:35;100676.41;;;33.62;20.33
53874;BME280;62246;50.938;4.058;2022-08-14T11:31:02;100664.91;;;33.70;19.74
53874;BME280;62246;50.938;4.058;2022-08-14T11:33:29;100659.97;;;33.87;19.74
53874;BME280;62246;50.938;4.058;2022-08-14T11:36:02;100673.63;;;34.24;19.62
53874;BME280;62246;50.938;4.058;2022-08-14T11:38:43;100667.34;;;34.13;18.90
53874;BME280;62246;50.938;4.058;2022-08-14T11:41:12;100657.69;;;34.31;19.18
53874;BME280;62246;50.938;4.058;2022-08-14T11:46:04;100661.25;;;34.47;19.68
53874;BME280;62246;50.938;4.058;2022-08-14T11:48:30;100651.00;;;34.68;19.23
53874;BME280;62246;50.938;4.058;2022-08-14T11:50:56;100651.16;;;34.92;18.98
53874;BME280;62246;50.938;4.058;2022-08-14T11:53:26;100658.97;;;35.19;18.29
53874;BME280;62246;50.938;4.058;2022-08-14T11:56:10;100653.09;;;35.36;18.06
53874;BME280;62246;50.938;4.058;2022-08-14T11:58:37;100653.94;;;35.32;18.65
53874;BME280;62246;50.938;4.058;2022-08-14T12:01:07;100649.47;;;35.01;18.30
53874;BME280;62246;50.938;4.058;2022-08-14T12:03:46;100653.38;;;35.30;18.51
53874;BME280;62246;50.938;4.058;2022-08-14T12:06:17;100658.53;;;35.76;18.24
53874;BME280;62246;50.938;4.058;2022-08-14T12:08:43;100655.44;;;36.17;18.49
53874;BME280;62246;50.938;4.058;2022-08-14T12:11:12;100647.91;;;35.99;17.68
53874;BME280;62246;50.938;4.058;2022-08-14T12:13:39;100630.50;;;36.03;17.26
53874;BME280;62246;50.938;4.058;2022-08-14T12:16:07;100635.56;;;36.69;17.22
53874;BME280;62246;50.938;4.058;2022-08-14T12:18:38;100636.44;;;37.22;16.66
53874;BME280;62246;50.938;4.058;2022-08-14T12:23:42;100642.47;;;37.95;15.35
53874;BME280;62246;50.938;4.058;2022-08-14T12:26:13;100632.63;;;38.86;14.91
53874;BME280;62246;50.938;4.058;2022-08-14T12:28:41;100634.31;;;38.45;14.68
53874;BME280;62246;50.938;4.058;2022-08-14T12:31:12;100637.06;;;40.67;13.22
53874;BME280;62246;50.938;4.058;2022-08-14T12:33:41;100637.59;;;42.64;11.68
53874;BME280;62246;50.938;4.058;2022-08-14T12:36:09;100637.63;;;42.34;11.41
53874;BME280;62246;50.938;4.058;2022-08-14T12:38:45;100629.22;;;43.15;11.72
53874;BME280;62246;50.938;4.058;2022-08-14T12:41:16;100629.41;;;43.43;11.52
53874;BME280;62246;50.938;4.058;2022-08-14T12:43:50;100623.50;;;43.11;10.87
53874;BME280;62246;50.938;4.058;2022-08-14T12:48:47;100609.50;;;42.57;11.86
53874;BME280;62246;50.938;4.058;2022-08-14T12:51:21;100617.66;;;40.93;12.95
53874;BME280;62246;50.938;4.058;2022-08-14T12:53:47;100615.53;;;40.64;11.98
53874;BME280;62246;50.938;4.058;2022-08-14T12:56:17;100607.69;;;42.31;11.10
53874;BME280;62246;50.938;4.058;2022-08-14T12:58:53;100613.50;;;42.89;11.46
53874;BME280;62246;50.938;4.058;2022-08-14T13:01:29;100608.19;;;41.47;11.67
53874;BME280;62246;50.938;4.058;2022-08-14T13:04:12;100608.25;;;42.75;10.30
53874;BME280;62246;50.938;4.058;2022-08-14T13:06:41;100610.09;;;42.41;11.26
53874;BME280;62246;50.938;4.058;2022-08-14T13:09:10;100602.13;;;43.37;10.03
53874;BME280;62246;50.938;4.058;2022-08-14T13:11:40;100603.81;;;41.02;11.43
53874;BME280;62246;50.938;4.058;2022-08-14T13:14:09;100603.78;;;42.53;10.28
53874;BME280;62246;50.938;4.058;2022-08-14T13:16:37;100604.34;;;44.14;9.80
53874;BME280;62246;50.938;4.058;2022-08-14T13:19:02;100600.56;;;43.60;10.10